Time;durP1;ratioP1;P1;durP2;ratioP2;P2;SDS_P1;SDS_P2;PMS_P1;PMS_P2;Temp;Humidity;BMP_temperature;BMP_pressure;BME280_temperature;BME280_humidity;BME280_pressure;Samples;Min_cycle;Max_cycle;Signal;HPM_P1;HPM_P2
2023/11/02 00:01:07;;;;;;;46.75;38.15;;;;;22.20;98281.00;;;;2050085;28;20305;-56
2023/11/02 00:02:07;;;;;;;51.38;39.63;;;;;22.30;98270.00;;;;2063857;28;20210;-56
2023/11/02 00:03:08;;;;;;;48.57;38.30;;;;;22.30;98269.00;;;;2064648;28;20223;-56
2023/11/02 00:04:08;;;;;;;48.13;39.20;;;;;22.30;98258.00;;;;2056875;28;20607;-56
2023/11/02 00:05:38;;;;;;;48.07;37.67;;;;;22.20;98247.00;;;;2052829;28;20218;-55
2023/11/02 00:06:39;;;;;;;48.00;36.70;;;;;22.20;98246.00;;;;2049613;28;20215;-56
2023/11/02 00:07:41;;;;;;;49.07;38.00;;;;;22.20;98249.00;;;;2060966;28;20243;-56
2023/11/02 00:08:41;;;;;;;46.38;37.85;;;;;22.20;98258.00;;;;2063762;28;20284;-56
2023/11/02 00:09:41;;;;;;;43.13;34.63;;;;;22.20;98250.00;;;;2059426;28;20219;-56
2023/11/02 00:10:42;;;;;;;44.33;34.33;;;;;22.20;98251.00;;;;2060878;28;20268;-55
2023/11/02 00:11:53;;;;;;;45.73;36.77;;;;;22.20;98250.00;;;;2043991;28;20310;-56
2023/11/02 00:12:54;;;;;;;42.75;35.28;;;;;22.20;98248.00;;;;2052639;28;20267;-56
2023/11/02 00:13:54;;;;;;;43.67;34.20;;;;;22.20;98239.00;;;;2064058;28;20222;-56
2023/11/02 00:14:54;;;;;;;43.00;33.60;;;;;22.20;98240.00;;;;2060028;28;20217;-57
2023/11/02 00:15:55;;;;;;;39.17;31.30;;;;;22.20;98245.00;;;;2052937;28;20223;-56
2023/11/02 00:16:55;;;;;;;41.33;32.97;;;;;22.20;98239.00;;;;2060610;28;20211;-56
2023/11/02 00:17:59;;;;;;;43.07;34.20;;;;;22.20;98226.00;;;;2061530;28;20222;-56
2023/11/02 00:18:59;;;;;;;43.25;33.45;;;;;22.20;98225.00;;;;2067526;28;20221;-56
2023/11/02 00:20:00;;;;;;;42.33;32.50;;;;;22.20;98226.00;;;;2052581;28;20211;-56
2023/11/02 00:21:03;;;;;;;43.05;32.95;;;;;22.20;98223.00;;;;2059052;28;20221;-56
2023/11/02 00:22:10;;;;;;;40.92;32.45;;;;;22.20;98224.00;;;;2068092;28;20226;-56
2023/11/02 00:23:11;;;;;;;39.90;30.85;;;;;22.20;98225.00;;;;2060498;28;20215;-56
2023/11/02 00:24:13;;;;;;;41.83;32.38;;;;;22.20;98220.00;;;;2061306;28;20297;-56
2023/11/02 00:25:28;;;;;;;41.42;33.05;;;;;22.20;98221.00;;;;2066827;28;20237;-56
2023/11/02 00:26:29;;;;;;;41.25;33.25;;;;;22.20;98222.00;;;;2047956;28;20219;-56
2023/11/02 00:27:32;;;;;;;43.63;35.10;;;;;22.20;98226.00;;;;2049135;28;20215;-56
2023/11/02 00:28:32;;;;;;;44.08;35.22;;;;;22.20;98233.00;;;;2061552;28;20211;-56
2023/11/02 00:29:32;;;;;;;45.10;37.17;;;;;22.20;98218.00;;;;2052782;28;20215;-55
2023/11/02 00:30:35;;;;;;;46.87;37.20;;;;;22.20;98213.00;;;;2069057;28;20225;-56
2023/11/02 00:31:36;;;;;;;44.25;36.38;;;;;22.20;98220.00;;;;2056552;28;20217;-53
2023/11/02 00:32:37;;;;;;;48.17;37.60;;;;;22.20;98207.00;;;;2069650;28;20214;-57
2023/11/02 00:33:37;;;;;;;46.63;35.70;;;;;22.20;98213.00;;;;2060898;28;20470;-57
2023/11/02 00:34:40;;;;;;;41.83;35.87;;;;;22.20;98215.00;;;;2060835;28;20218;-57
2023/11/02 00:35:51;;;;;;;40.88;33.70;;;;;22.20;98203.00;;;;2054061;28;20604;-57
2023/11/02 00:36:51;;;;;;;43.67;35.80;;;;;22.20;98118.00;;;;2052906;28;20317;-54
2023/11/02 00:37:52;;;;;;;48.40;37.43;;;;;22.20;98211.00;;;;2059594;28;20739;-56
2023/11/02 00:38:56;;;;;;;49.20;39.20;;;;;22.10;98203.00;;;;2061857;28;20222;-53
2023/11/02 00:39:57;;;;;;;51.38;40.92;;;;;22.10;98205.00;;;;2068915;28;20222;-56
2023/11/02 00:40:58;;;;;;;58.83;44.00;;;;;22.20;98196.00;;;;2050922;28;20223;-54
2023/11/02 00:41:58;;;;;;;52.20;43.10;;;;;22.10;98193.00;;;;2058057;28;20206;-56
2023/11/02 00:42:59;;;;;;;58.60;45.33;;;;;22.10;98188.00;;;;2060681;28;20215;-53
2023/11/02 00:43:59;;;;;;;54.97;44.60;;;;;22.10;98176.00;;;;2053840;28;20216;-54
2023/11/02 00:44:59;;;;;;;69.00;48.20;;;;;22.10;98188.00;;;;2060355;28;20234;-55
2023/11/02 00:46:00;;;;;;;60.60;46.33;;;;;22.10;98184.00;;;;2050606;28;20754;-55
2023/11/02 00:47:00;;;;;;;66.43;50.10;;;;;22.10;98112.00;;;;2061663;28;20757;-56
2023/11/02 00:48:00;;;;;;;65.10;48.10;;;;;22.10;98178.00;;;;2061084;28;20215;-55
2023/11/02 00:49:01;;;;;;;64.23;48.63;;;;;22.10;98176.00;;;;2059878;28;20654;-55
2023/11/02 00:50:01;;;;;;;66.03;48.80;;;;;22.10;98152.00;;;;2074452;28;20962;-55
2023/11/02 00:51:24;;;;;;;67.37;50.33;;;;;22.10;98164.00;;;;2059219;28;20231;-56
2023/11/02 00:52:24;;;;;;;60.65;47.50;;;;;22.10;98170.00;;;;2058550;28;20277;-56
2023/11/02 00:53:24;;;;;;;65.47;48.30;;;;;22.10;98166.00;;;;2056891;28;20222;-56
2023/11/02 00:54:49;;;;;;;69.43;49.93;;;;;22.10;98174.00;;;;2058921;28;20218;-54
2023/11/02 00:55:49;;;;;;;63.08;47.42;;;;;22.10;98169.00;;;;2043886;28;20305;-55
2023/11/02 00:56:49;;;;;;;66.70;47.30;;;;;22.10;98160.00;;;;2058851;28;20223;-56
2023/11/02 00:57:50;;;;;;;64.37;47.80;;;;;22.10;98152.00;;;;2067093;28;20226;-56
2023/11/02 00:58:53;;;;;;;67.00;49.37;;;;;22.10;98150.00;;;;2071689;28;20229;-56
2023/11/02 00:59:57;;;;;;;64.60;48.78;;;;;22.10;98143.00;;;;2066898;28;20237;-54
2023/11/02 01:01:05;;;;;;;65.50;46.80;;;;;21.60;98151.00;;;;2051042;28;20226;-53
2023/11/02 01:02:06;;;;;;;65.32;48.25;;;;;22.10;98140.00;;;;2061642;28;20230;-54
2023/11/02 01:03:06;;;;;;;63.53;47.45;;;;;22.00;98131.00;;;;2050612;28;20691;-57
2023/11/02 01:04:50;;;;;;;59.57;45.03;;;;;22.00;98131.00;;;;2044133;28;20208;-56
2023/11/02 01:05:50;;;;;;;59.45;43.40;;;;;22.00;98128.00;;;;2047520;28;20233;-57
2023/11/02 01:06:50;;;;;;;61.80;44.23;;;;;22.00;98115.00;;;;2053915;28;20262;-57
2023/11/02 01:07:51;;;;;;;54.40;42.47;;;;;22.10;98120.00;;;;2053361;28;20929;-57
2023/11/02 01:08:59;;;;;;;58.23;41.57;;;;;22.10;98106.00;;;;2060160;28;21007;-54
2023/11/02 01:10:01;;;;;;;57.17;42.10;;;;;22.00;98099.00;;;;2047727;28;20216;-54
2023/11/02 01:11:02;;;;;;;53.67;40.28;;;;;22.00;98100.00;;;;2053700;28;20237;-54
2023/11/02 01:12:05;;;;;;;54.17;40.03;;;;;22.00;98088.00;;;;2060946;28;20611;-55
2023/11/02 01:13:10;;;;;;;54.35;41.08;;;;;22.00;98093.00;;;;2060076;28;20722;-58
2023/11/02 01:14:13;;;;;;;58.40;40.25;;;;;22.00;98101.00;;;;2050706;28;20295;-56
2023/11/02 01:15:43;;;;;;;50.83;40.67;;;;;22.00;98093.00;;;;2055197;28;20210;-55
2023/11/02 01:16:43;;;;;;;51.70;37.75;;;;;22.00;98098.00;;;;2054402;28;20233;-57
2023/11/02 01:17:44;;;;;;;50.93;39.37;;;;;22.00;98090.00;;;;2050959;28;20700;-57
2023/11/02 01:18:45;;;;;;;46.60;37.00;;;;;22.10;98094.00;;;;2062171;28;20258;-54
2023/11/02 01:19:54;;;;;;;46.30;37.78;;;;;22.10;98098.00;;;;2060870;28;20265;-56
2023/11/02 01:21:05;;;;;;;49.83;38.58;;;;;22.00;98079.00;;;;2057305;28;20214;-57
2023/11/02 01:22:26;;;;;;;49.15;36.80;;;;;22.00;98079.00;;;;2065741;28;20218;-55
2023/11/02 01:23:27;;;;;;;50.10;36.50;;;;;22.00;98126.00;;;;2068477;28;20218;-54
2023/11/02 01:24:27;;;;;;;45.25;35.15;;;;;22.00;98076.00;;;;2064349;28;20222;-57
2023/11/02 01:25:28;;;;;;;48.80;36.60;;;;;22.00;98074.00;;;;2059407;28;20665;-60
2023/11/02 01:27:00;;;;;;;45.30;35.03;;;;;22.00;98063.00;;;;2050254;28;20285;-53
2023/11/02 01:28:02;;;;;;;44.28;33.90;;;;;22.00;98063.00;;;;2058355;28;20446;-57
2023/11/02 01:29:02;;;;;;;43.50;34.15;;;;;22.00;98050.00;;;;2052742;28;20212;-54
2023/11/02 01:30:09;;;;;;;45.50;33.20;;;;;22.00;98053.00;;;;2071529;28;20241;-54
2023/11/02 01:31:14;;;;;;;42.72;34.13;;;;;22.00;98058.00;;;;2053706;28;20710;-57
2023/11/02 01:32:15;;;;;;;40.78;33.55;;;;;22.00;98044.00;;;;2061587;28;20309;-55
2023/11/02 01:33:34;;;;;;;42.35;32.75;;;;;22.00;98043.00;;;;2068503;28;20218;-56
2023/11/02 01:34:34;;;;;;;41.10;31.20;;;;;21.80;98036.00;;;;2065706;28;20221;-56
2023/11/02 01:35:41;;;;;;;42.63;32.47;;;;;22.00;98039.00;;;;2068706;28;20253;-56
2023/11/02 01:36:44;;;;;;;41.72;31.45;;;;;22.00;98029.00;;;;2050813;28;20218;-56
2023/11/02 01:37:45;;;;;;;38.45;31.13;;;;;22.00;98031.00;;;;2052910;28;20234;-56
2023/11/02 01:38:45;;;;;;;38.30;29.98;;;;;22.00;98025.00;;;;2059618;28;20225;-56
2023/11/02 01:40:15;;;;;;;41.53;30.37;;;;;22.00;98026.00;;;;2060599;28;20231;-56
2023/11/02 01:41:18;;;;;;;41.20;29.45;;;;;22.00;98030.00;;;;2048514;28;20397;-56
2023/11/02 01:42:23;;;;;;;37.45;29.58;;;;;22.00;98025.00;;;;2070805;28;20237;-55
2023/11/02 01:43:26;;;;;;;40.35;30.60;;;;;22.00;98015.00;;;;2068573;28;20292;-55
2023/11/02 01:44:39;;;;;;;34.92;27.17;;;;;22.00;98015.00;;;;2058059;28;20219;-56
2023/11/02 01:45:41;;;;;;;34.92;28.00;;;;;22.00;98006.00;;;;2057978;28;20685;-56
2023/11/02 01:47:03;;;;;;;38.45;27.85;;;;;22.00;98002.00;;;;2059623;28;20896;-56
2023/11/02 01:48:03;;;;;;;32.08;26.25;;;;;22.00;98000.00;;;;2065633;28;20221;-56
2023/11/02 01:49:03;;;;;;;35.20;26.63;;;;;22.00;98004.00;;;;2057660;28;20940;-56
2023/11/02 01:50:25;;;;;;;35.43;26.77;;;;;22.00;97993.00;;;;2060495;28;20219;-56
2023/11/02 01:51:27;;;;;;;33.40;25.95;;;;;22.00;97995.00;;;;2055217;28;20229;-55
2023/11/02 01:52:37;;;;;;;33.97;26.80;;;;;22.00;97991.00;;;;2063113;28;20225;-56
2023/11/02 01:53:46;;;;;;;33.70;25.90;;;;;21.90;97988.00;;;;2060398;28;20214;-56
2023/11/02 01:54:50;;;;;;;32.95;25.33;;;;;22.00;97986.00;;;;2067728;28;20273;-56
2023/11/02 01:56:22;;;;;;;32.92;24.73;;;;;21.90;97983.00;;;;2059175;28;20855;-56
2023/11/02 01:57:44;;;;;;;32.08;24.95;;;;;21.90;97965.00;;;;2059317;28;20321;-56
2023/11/02 01:58:50;;;;;;;29.23;23.63;;;;;21.90;97971.00;;;;2068251;28;20218;-56
2023/11/02 01:59:51;;;;;;;29.52;23.48;;;;;21.90;97948.00;;;;2068040;28;20245;-56
2023/11/02 02:00:59;;;;;;;34.75;25.80;;;;;21.90;97965.00;;;;2050078;28;20250;-56
2023/11/02 02:02:16;;;;;;;27.17;22.88;;;;;21.90;97953.00;;;;2051269;28;20226;-55
2023/11/02 02:03:23;;;;;;;30.40;22.70;;;;;21.90;97951.00;;;;2056266;28;20313;-56
2023/11/02 02:04:44;;;;;;;30.15;23.33;;;;;21.90;97969.00;;;;2058675;28;20218;-56
2023/11/02 02:05:52;;;;;;;31.02;23.25;;;;;21.90;97957.00;;;;2045586;28;20269;-58
2023/11/02 02:07:15;;;;;;;28.10;22.20;;;;;21.90;97949.00;;;;2064106;28;20590;-56
2023/11/02 02:08:36;;;;;;;28.67;23.15;;;;;21.90;97921.00;;;;2037988;29;20295;-56
2023/11/02 02:09:55;;;;;;;28.38;22.58;;;;;21.90;97923.00;;;;2060146;28;20222;-55
2023/11/02 02:11:33;;;;;;;28.80;20.85;;;;;21.90;97930.00;;;;2050942;28;20280;-55
2023/11/02 02:12:44;;;;;;;27.10;20.42;;;;;22.00;97928.00;;;;2054231;28;20226;-56
2023/11/02 02:14:30;;;;;;;24.88;19.77;;;;;21.90;97939.00;;;;2057044;28;20711;-56
2023/11/02 02:15:32;;;;;;;30.20;20.88;;;;;21.90;97930.00;;;;2055767;28;20701;-56
2023/11/02 02:16:42;;;;;;;23.65;19.27;;;;;21.90;97920.00;;;;2049693;28;20648;-56
2023/11/02 02:17:57;;;;;;;27.48;20.70;;;;;21.90;97930.00;;;;2051892;28;20343;-56
2023/11/02 02:19:07;;;;;;;26.38;19.73;;;;;21.90;97924.00;;;;2059874;28;20242;-55
2023/11/02 02:20:09;;;;;;;23.75;17.52;;;;;21.90;97917.00;;;;2060723;28;20252;-57
2023/11/02 02:21:17;;;;;;;23.88;18.80;;;;;21.90;97899.00;;;;2037394;28;20291;-56
2023/11/02 02:22:21;;;;;;;26.20;19.58;;;;;21.90;97906.00;;;;2063414;28;20214;-58
2023/11/02 02:23:31;;;;;;;26.92;20.23;;;;;21.90;97904.00;;;;2064400;28;20786;-57
2023/11/02 02:24:43;;;;;;;21.85;18.00;;;;;21.90;97889.00;;;;2067471;28;21123;-58
2023/11/02 02:25:59;;;;;;;21.23;17.83;;;;;21.90;97880.00;;;;2059640;28;20218;-57
2023/11/02 02:27:11;;;;;;;22.17;17.48;;;;;21.90;97874.00;;;;2063175;28;20733;-57
2023/11/02 02:28:18;;;;;;;23.85;18.05;;;;;21.90;97872.00;;;;2052300;28;20278;-57
2023/11/02 02:29:39;;;;;;;21.73;17.90;;;;;21.90;97869.00;;;;2065204;28;20221;-56
2023/11/02 02:31:10;;;;;;;21.40;17.00;;;;;21.90;97860.00;;;;2064112;28;20219;-57
2023/11/02 02:32:25;;;;;;;22.90;17.50;;;;;21.90;97857.00;;;;2057298;28;20814;-59
2023/11/02 02:33:40;;;;;;;21.80;16.67;;;;;21.90;97846.00;;;;2052112;28;20229;-56
2023/11/02 02:35:23;;;;;;;21.38;17.77;;;;;21.80;97844.00;;;;2061926;28;20273;-57
2023/11/02 02:36:26;;;;;;;23.05;16.13;;;;;21.90;97841.00;;;;2028619;29;20231;-57
2023/11/02 02:37:32;;;;;;;22.83;17.20;;;;;21.90;97832.00;;;;2056410;28;20322;-57
2023/11/02 02:38:51;;;;;;;21.48;15.70;;;;;21.90;97823.00;;;;2065873;28;20219;-57
2023/11/02 02:40:06;;;;;;;19.75;14.30;;;;;21.90;97828.00;;;;2066138;28;20218;-57
2023/11/02 02:41:12;;;;;;;18.75;15.30;;;;;21.90;97821.00;;;;2042503;28;20234;-57
2023/11/02 02:42:15;;;;;;;20.65;15.15;;;;;21.90;97808.00;;;;2068348;28;20210;-57
2023/11/02 02:43:17;;;;;;;23.63;16.77;;;;;21.80;97796.00;;;;2064566;28;20225;-58
2023/11/02 02:44:17;;;;;;;19.80;15.25;;;;;21.90;97796.00;;;;2070117;28;20217;-57
2023/11/02 02:45:17;;;;;;;19.50;15.07;;;;;21.80;97800.00;;;;2066900;28;20635;-57
2023/11/02 02:46:22;;;;;;;19.10;15.13;;;;;21.90;97803.00;;;;2046920;28;20301;-57
2023/11/02 02:47:23;;;;;;;20.05;14.65;;;;;21.90;97760.00;;;;2061049;28;20630;-56
2023/11/02 02:48:23;;;;;;;20.63;14.15;;;;;21.80;97773.00;;;;2067868;28;20214;-57
2023/11/02 02:49:23;;;;;;;21.27;15.50;;;;;21.80;97779.00;;;;2052482;28;20230;-57
2023/11/02 02:50:27;;;;;;;16.90;13.87;;;;;21.90;97793.00;;;;2052092;28;20211;-57
2023/11/02 02:51:28;;;;;;;17.95;14.20;;;;;21.90;97778.00;;;;2048867;28;20234;-58
2023/11/02 02:52:29;;;;;;;18.97;14.90;;;;;21.80;97785.00;;;;2047288;28;20231;-57
2023/11/02 02:53:32;;;;;;;16.40;13.37;;;;;21.80;97791.00;;;;2056183;28;20231;-57
2023/11/02 02:54:35;;;;;;;17.35;13.32;;;;;21.80;97790.00;;;;2059143;28;20493;-57
2023/11/02 02:55:36;;;;;;;18.38;13.55;;;;;21.90;97796.00;;;;2064153;28;20241;-57
2023/11/02 02:56:37;;;;;;;16.63;12.80;;;;;21.90;97787.00;;;;2033065;28;20330;-57
2023/11/02 02:57:42;;;;;;;17.00;13.10;;;;;21.90;97793.00;;;;2051397;28;20235;-56
2023/11/02 02:59:03;;;;;;;15.55;12.30;;;;;21.80;97771.00;;;;2060405;28;20664;-58
2023/11/02 03:00:04;;;;;;;15.50;12.77;;;;;21.80;97752.00;;;;2061842;28;20219;-57
2023/11/02 03:01:04;;;;;;;16.10;12.60;;;;;21.90;97754.00;;;;2052730;28;21749;-57
2023/11/02 03:02:04;;;;;;;17.10;13.00;;;;;21.90;97747.00;;;;2069366;28;20674;-57
2023/11/02 03:03:05;;;;;;;16.47;11.87;;;;;21.80;97753.00;;;;2067601;28;20332;-56
2023/11/02 03:04:11;;;;;;;16.47;11.87;;;;;21.80;97744.00;;;;2061764;28;20226;-56
2023/11/02 03:05:12;;;;;;;17.25;12.45;;;;;21.80;97746.00;;;;2073946;28;20260;-57
2023/11/02 03:06:13;;;;;;;15.02;11.68;;;;;21.80;97742.00;;;;2057948;28;20636;-57
2023/11/02 03:07:14;;;;;;;16.90;12.37;;;;;21.80;97733.00;;;;2058999;28;20218;-57
2023/11/02 03:08:14;;;;;;;14.38;11.65;;;;;21.80;97723.00;;;;2068447;28;20210;-58
2023/11/02 03:09:16;;;;;;;16.80;12.90;;;;;21.80;97705.00;;;;2051536;28;20578;-58
2023/11/02 03:10:17;;;;;;;17.08;12.20;;;;;21.80;97701.00;;;;2049944;28;20234;-57
2023/11/02 03:11:17;;;;;;;15.07;11.25;;;;;21.80;97711.00;;;;2057208;28;20222;-56
2023/11/02 03:12:25;;;;;;;14.93;11.30;;;;;21.80;97712.00;;;;2059984;28;20210;-56
2023/11/02 03:13:26;;;;;;;16.40;11.07;;;;;21.80;97728.00;;;;2054717;28;20217;-56
2023/11/02 03:14:26;;;;;;;15.90;11.37;;;;;21.80;97716.00;;;;2059598;28;20797;-56
2023/11/02 03:15:29;;;;;;;12.60;10.43;;;;;21.80;97733.00;;;;2043776;29;20245;-57
2023/11/02 03:16:34;;;;;;;13.60;10.35;;;;;21.80;97740.00;;;;2043449;28;21137;-57
2023/11/02 03:17:48;;;;;;;12.82;10.85;;;;;21.80;97732.00;;;;2047323;28;20243;-57
2023/11/02 03:18:49;;;;;;;14.75;10.95;;;;;21.80;97732.00;;;;2050558;28;20218;-58
2023/11/02 03:19:50;;;;;;;13.03;10.20;;;;;21.80;97731.00;;;;2062940;28;20313;-57
2023/11/02 03:20:50;;;;;;;11.23;9.40;;;;;21.80;97713.00;;;;2044535;28;20215;-56
2023/11/02 03:21:51;;;;;;;12.20;10.07;;;;;21.80;97706.00;;;;2060365;28;20532;-56
2023/11/02 03:22:51;;;;;;;9.53;8.43;;;;;21.80;97698.00;;;;2054746;28;20230;-58
2023/11/02 03:24:00;;;;;;;12.40;10.07;;;;;21.80;97698.00;;;;2067182;28;20234;-58
2023/11/02 03:25:28;;;;;;;13.38;9.65;;;;;21.80;97699.00;;;;2068320;28;20226;-57
2023/11/02 03:26:50;;;;;;;12.55;9.40;;;;;21.80;97700.00;;;;2057432;28;20230;-56
2023/11/02 03:27:56;;;;;;;12.32;9.85;;;;;21.80;97687.00;;;;2060748;28;20242;-57
2023/11/02 03:29:28;;;;;;;12.25;9.07;;;;;21.80;97585.00;;;;2068229;28;20674;-57
2023/11/02 03:30:57;;;;;;;9.98;8.57;;;;;21.80;97660.00;;;;2041515;28;20228;-57
2023/11/02 03:32:19;;;;;;;12.52;8.80;;;;;21.80;97657.00;;;;2048073;28;20289;-57
2023/11/02 03:33:25;;;;;;;13.05;9.13;;;;;21.80;97649.00;;;;2059148;28;20297;-57
2023/11/02 03:34:35;;;;;;;12.10;9.05;;;;;21.80;97631.00;;;;2046591;28;20227;-57
2023/11/02 03:35:40;;;;;;;10.80;8.60;;;;;21.20;97633.00;;;;2057436;28;20811;-57
2023/11/02 03:36:47;;;;;;;11.18;9.15;;;;;21.80;97627.00;;;;2058561;28;20221;-57
2023/11/02 03:38:07;;;;;;;11.13;9.15;;;;;21.80;97639.00;;;;2056609;28;20238;-57
2023/11/02 03:39:41;;;;;;;10.27;8.65;;;;;21.80;97640.00;;;;2059112;28;20218;-56
2023/11/02 03:41:07;;;;;;;9.90;8.25;;;;;21.80;97620.00;;;;2060015;28;20233;-59
2023/11/02 03:42:08;;;;;;;10.43;7.90;;;;;21.80;97626.00;;;;2056489;28;20222;-56
2023/11/02 03:43:11;;;;;;;8.60;7.07;;;;;21.80;97618.00;;;;2060517;28;20685;-58
2023/11/02 03:44:13;;;;;;;10.05;7.65;;;;;21.80;97601.00;;;;2051414;28;20784;-56
2023/11/02 03:45:23;;;;;;;11.20;8.20;;;;;21.80;97605.00;;;;2050292;28;20229;-56
2023/11/02 03:46:43;;;;;;;10.45;7.35;;;;;21.80;97600.00;;;;2053240;28;21055;-57
2023/11/02 03:47:57;;;;;;;10.60;7.70;;;;;21.80;97600.00;;;;2064573;28;20222;-56
2023/11/02 03:49:13;;;;;;;9.20;7.40;;;;;21.80;97592.00;;;;2061504;28;20240;-57
2023/11/02 03:50:32;;;;;;;8.90;7.43;;;;;21.70;97584.00;;;;2063788;28;20245;-56
2023/11/02 03:51:39;;;;;;;9.57;7.28;;;;;21.80;97581.00;;;;2055806;28;20206;-56
2023/11/02 03:53:11;;;;;;;9.35;7.10;;;;;21.80;97562.00;;;;2057248;28;20589;-56
2023/11/02 03:54:44;;;;;;;9.82;7.97;;;;;21.70;97551.00;;;;2049814;28;20250;-56
2023/11/02 03:55:51;;;;;;;8.00;6.93;;;;;21.70;97547.00;;;;2040647;28;20693;-60
2023/11/02 03:56:55;;;;;;;9.85;6.63;;;;;21.70;97541.00;;;;2068108;28;20230;-55
2023/11/02 03:58:05;;;;;;;9.20;6.50;;;;;21.80;97541.00;;;;2068375;28;20264;-54
2023/11/02 03:59:08;;;;;;;8.57;6.65;;;;;21.70;97548.00;;;;2069596;28;20226;-55
2023/11/02 04:00:10;;;;;;;9.60;7.30;;;;;21.70;97544.00;;;;2067553;28;20229;-56
2023/11/02 04:01:21;;;;;;;9.55;7.03;;;;;21.70;97550.00;;;;2051072;28;20334;-56
2023/11/02 04:02:28;;;;;;;9.20;6.68;;;;;21.70;97533.00;;;;2054497;28;20218;-54
2023/11/02 04:03:29;;;;;;;8.95;6.70;;;;;21.70;97524.00;;;;2060226;28;20215;-56
2023/11/02 04:04:40;;;;;;;9.57;7.00;;;;;21.70;97505.00;;;;2060914;28;20847;-56
2023/11/02 04:05:43;;;;;;;9.50;7.05;;;;;21.70;97500.00;;;;2059373;28;20255;-56
2023/11/02 04:06:52;;;;;;;8.40;6.53;;;;;21.70;97513.00;;;;2053179;28;20249;-56
2023/11/02 04:08:11;;;;;;;7.70;6.07;;;;;21.70;97500.00;;;;2068297;28;20288;-57
2023/11/02 04:09:15;;;;;;;10.75;6.18;;;;;21.70;97482.00;;;;2070662;28;20225;-55
2023/11/02 04:10:15;;;;;;;8.98;6.47;;;;;21.70;97487.00;;;;2066514;28;20218;-55
2023/11/02 04:11:21;;;;;;;6.30;5.67;;;;;21.70;97479.00;;;;2057992;28;20230;-56
2023/11/02 04:12:28;;;;;;;7.13;5.63;;;;;21.70;97486.00;;;;2068980;28;20210;-56
2023/11/02 04:14:07;;;;;;;8.75;6.38;;;;;21.70;97485.00;;;;2060925;28;20215;-55
2023/11/02 04:15:08;;;;;;;9.10;6.65;;;;;21.70;97472.00;;;;2054204;28;20241;-57
2023/11/02 04:16:09;;;;;;;7.10;5.73;;;;;21.70;97475.00;;;;2050837;28;20229;-57
2023/11/02 04:17:11;;;;;;;6.83;5.60;;;;;21.70;97484.00;;;;2061099;28;20461;-56
2023/11/02 04:18:12;;;;;;;7.40;5.40;;;;;21.70;97484.00;;;;2051805;28;20227;-54
2023/11/02 04:19:12;;;;;;;7.03;5.50;;;;;21.70;97487.00;;;;2060797;28;20316;-56
2023/11/02 04:20:12;;;;;;;6.80;5.33;;;;;21.70;97489.00;;;;2069000;28;20228;-54
2023/11/02 04:21:13;;;;;;;5.87;4.90;;;;;21.70;97470.00;;;;2052448;28;20218;-54
2023/11/02 04:22:13;;;;;;;6.87;5.27;;;;;21.70;97474.00;;;;2061131;28;20218;-55
2023/11/02 04:23:14;;;;;;;7.80;5.30;;;;;21.70;97461.00;;;;2062540;28;20257;-56
2023/11/02 04:24:15;;;;;;;6.40;5.30;;;;;21.70;97457.00;;;;2061199;28;20729;-53
2023/11/02 04:25:16;;;;;;;10.23;6.00;;;;;21.70;97449.00;;;;2068805;28;20206;-54
2023/11/02 04:26:16;;;;;;;7.13;5.53;;;;;21.70;97452.00;;;;2057532;28;20215;-56
2023/11/02 04:27:16;;;;;;;7.03;4.93;;;;;21.70;97444.00;;;;2068843;28;20595;-57
2023/11/02 04:28:17;;;;;;;6.43;5.27;;;;;21.70;97430.00;;;;2057661;28;20285;-54
2023/11/02 04:29:17;;;;;;;6.17;4.83;;;;;21.70;97446.00;;;;2061031;28;20265;-56
2023/11/02 04:30:18;;;;;;;6.27;4.93;;;;;21.70;97425.00;;;;2061425;28;20261;-57
2023/11/02 04:31:18;;;;;;;7.20;5.53;;;;;21.70;97431.00;;;;2051583;28;20296;-57
2023/11/02 04:32:18;;;;;;;6.50;5.40;;;;;21.70;97421.00;;;;2068933;28;20301;-56
2023/11/02 04:33:19;;;;;;;7.60;4.50;;;;;21.70;97406.00;;;;2059936;28;20222;-56
2023/11/02 04:34:19;;;;;;;6.87;5.37;;;;;21.60;97432.00;;;;2053373;28;20267;-58
2023/11/02 04:35:19;;;;;;;5.77;5.03;;;;;21.70;97400.00;;;;2068529;28;20579;-57
2023/11/02 04:36:20;;;;;;;5.80;4.20;;;;;21.70;97384.00;;;;2055139;28;20725;-56
2023/11/02 04:37:20;;;;;;;6.50;4.73;;;;;21.70;97368.00;;;;2068701;28;20206;-57
2023/11/02 04:38:20;;;;;;;6.70;5.17;;;;;21.70;97378.00;;;;2068931;28;20206;-57
2023/11/02 04:39:21;;;;;;;6.70;3.93;;;;;21.70;97377.00;;;;2068843;28;20266;-56
2023/11/02 04:40:22;;;;;;;5.82;4.60;;;;;21.70;97366.00;;;;2063627;28;20203;-56
2023/11/02 04:41:23;;;;;;;5.73;4.67;;;;;21.70;97343.00;;;;2050739;28;20238;-56
2023/11/02 04:42:23;;;;;;;5.20;4.17;;;;;21.70;97349.00;;;;2069382;28;20214;-57
2023/11/02 04:43:23;;;;;;;7.00;4.60;;;;;21.70;97340.00;;;;2063791;28;20546;-57
2023/11/02 04:44:24;;;;;;;5.93;4.50;;;;;21.70;97344.00;;;;2068484;28;20210;-57
2023/11/02 04:45:24;;;;;;;6.50;4.87;;;;;21.70;97321.00;;;;2075236;28;20229;-56
2023/11/02 04:46:24;;;;;;;5.47;3.80;;;;;21.70;97319.00;;;;2056120;28;20385;-55
2023/11/02 04:47:25;;;;;;;5.10;4.10;;;;;21.60;97286.00;;;;2068955;28;20207;-55
2023/11/02 04:48:25;;;;;;;5.40;4.30;;;;;21.70;97282.00;;;;2068862;28;20210;-54
2023/11/02 04:49:26;;;;;;;4.60;3.93;;;;;21.70;97264.00;;;;2066496;28;20978;-54
2023/11/02 04:50:27;;;;;;;5.10;3.93;;;;;21.60;97242.00;;;;2057847;28;20218;-57
2023/11/02 04:51:27;;;;;;;5.53;4.03;;;;;21.70;97209.00;;;;2056853;28;20220;-58
2023/11/02 04:52:35;;;;;;;5.40;4.03;;;;;21.60;97181.00;;;;2066018;28;20414;-56
2023/11/02 04:53:35;;;;;;;5.28;4.18;;;;;21.60;97141.00;;;;2053416;28;20230;-56
2023/11/02 04:54:36;;;;;;;4.00;3.10;;;;;21.60;97117.00;;;;2058706;28;20227;-56
2023/11/02 04:55:37;;;;;;;4.83;4.17;;;;;21.60;97094.00;;;;2061053;28;20218;-58
2023/11/02 04:56:37;;;;;;;5.53;3.85;;;;;21.60;97071.00;;;;2045937;28;20223;-57
2023/11/02 04:57:38;;;;;;;5.97;4.10;;;;;21.60;97026.00;;;;2065835;28;20386;-57
2023/11/02 04:58:38;;;;;;;4.90;3.77;;;;;21.60;97016.00;;;;2060855;28;20223;-57
2023/11/02 04:59:42;;;;;;;5.40;4.03;;;;;21.60;96981.00;;;;2057970;28;20314;-57
2023/11/02 05:00:42;;;;;;;4.03;3.25;;;;;21.60;96966.00;;;;2056797;28;20684;-58
2023/11/02 05:01:43;;;;;;;5.57;3.93;;;;;21.60;96911.00;;;;2052411;28;20218;-58
2023/11/02 05:02:44;;;;;;;4.88;3.75;;;;;21.60;97059.00;;;;2068640;28;20301;-57
2023/11/02 05:03:44;;;;;;;6.10;3.40;;;;;21.60;97086.00;;;;2067795;28;20703;-57
2023/11/02 05:04:44;;;;;;;5.07;3.30;;;;;21.60;97112.00;;;;2061362;28;20214;-57
2023/11/02 05:05:45;;;;;;;7.13;4.30;;;;;21.60;97078.00;;;;2061924;28;20270;-56
2023/11/02 05:06:45;;;;;;;4.60;3.67;;;;;21.60;97054.00;;;;2069053;28;20261;-57
2023/11/02 05:07:45;;;;;;;4.40;3.10;;;;;21.60;97044.00;;;;2065168;28;20337;-56
2023/11/02 05:08:46;;;;;;;4.90;3.53;;;;;21.60;97042.00;;;;2063068;28;20769;-58
2023/11/02 05:09:46;;;;;;;5.37;3.37;;;;;21.60;97052.00;;;;2069079;28;20194;-57
2023/11/02 05:10:46;;;;;;;4.50;2.97;;;;;21.60;97076.00;;;;2056555;28;20281;-56
2023/11/02 05:11:47;;;;;;;5.80;3.40;;;;;21.60;97102.00;;;;2057674;28;20358;-58
2023/11/02 05:12:47;;;;;;;5.17;2.93;;;;;21.60;97125.00;;;;2053679;28;20215;-58
2023/11/02 05:13:47;;;;;;;4.30;3.10;;;;;21.60;97153.00;;;;2055103;28;20215;-58
2023/11/02 05:14:48;;;;;;;4.03;3.10;;;;;21.60;97157.00;;;;2066310;28;20186;-58
2023/11/02 05:15:48;;;;;;;4.27;3.20;;;;;21.70;97150.00;;;;2062120;28;20222;-58
2023/11/02 05:16:48;;;;;;;4.23;3.20;;;;;21.60;97110.00;;;;2050772;28;20183;-57
2023/11/02 05:17:49;;;;;;;4.27;3.13;;;;;21.60;97088.00;;;;2057603;28;20701;-56
2023/11/02 05:18:49;;;;;;;4.03;3.20;;;;;21.60;97081.00;;;;2053953;28;20191;-57
2023/11/02 05:19:50;;;;;;;4.10;3.20;;;;;21.60;97088.00;;;;2050293;28;20187;-57
2023/11/02 05:20:57;;;;;;;3.70;2.70;;;;;21.60;97097.00;;;;2053552;28;20282;-57
2023/11/02 05:21:57;;;;;;;4.95;3.20;;;;;21.60;97083.00;;;;2056603;28;20186;-58
2023/11/02 05:22:57;;;;;;;3.37;2.73;;;;;21.60;97084.00;;;;2060235;28;20201;-57
2023/11/02 05:23:58;;;;;;;4.23;3.43;;;;;21.60;97058.00;;;;2060904;28;20211;-57
2023/11/02 05:24:58;;;;;;;4.57;3.03;;;;;21.60;97069.00;;;;2058143;28;20235;-57
2023/11/02 05:25:58;;;;;;;5.23;3.27;;;;;21.60;97064.00;;;;2056646;28;20194;-58